Time;durP1;ratioP1;P1;durP2;ratioP2;P2;SDS_P1;SDS_P2;PMS_P1;PMS_P2;Temp;Humidity;BMP_temperature;BMP_pressure;BME280_temperature;BME280_humidity;BME280_pressure;Samples;Min_cycle;Max_cycle;Signal;HPM_P1;HPM_P2
2022/02/20 00:00:42;;;;;;;7.10;4.40;;;3.30;99.90;;;;;;6306772;22;20011;-91
2022/02/20 00:03:08;;;;;;;9.02;4.68;;;3.40;99.90;;;;;;6306811;22;20004;-92
2022/02/20 00:05:34;;;;;;;12.10;4.63;;;3.30;99.90;;;;;;6306994;22;20099;-92
2022/02/20 00:08:00;;;;;;;10.70;4.95;;;3.30;99.90;;;;;;6306840;22;20427;-90
2022/02/20 00:10:26;;;;;;;7.90;4.88;;;3.40;99.90;;;;;;6306413;22;20048;-92
2022/02/20 00:12:52;;;;;;;9.93;4.25;;;3.40;99.90;;;;;;6306140;22;20167;-91
2022/02/20 00:15:17;;;;;;;12.93;5.30;;;3.40;99.90;;;;;;6306728;22;20081;-92
2022/02/20 00:17:43;;;;;;;14.05;5.32;;;3.40;99.90;;;;;;6306675;22;20062;-93
2022/02/20 00:20:09;;;;;;;9.30;5.18;;;3.40;99.90;;;;;;6307059;22;20376;-91
2022/02/20 00:22:35;;;;;;;9.35;5.40;;;3.40;99.90;;;;;;6305645;22;20026;-90
2022/02/20 00:25:04;;;;;;;12.63;5.20;;;3.40;99.90;;;;;;6307066;22;20363;-91
2022/02/20 00:27:29;;;;;;;9.27;5.15;;;3.50;99.90;;;;;;6305853;22;20004;-91
2022/02/20 00:29:55;;;;;;;8.88;4.22;;;3.50;99.90;;;;;;6304751;22;20053;-91
2022/02/20 00:32:21;;;;;;;13.20;4.82;;;3.50;99.90;;;;;;6305830;22;20067;-91
2022/02/20 00:34:46;;;;;;;10.07;5.30;;;3.50;99.90;;;;;;6307058;22;20019;-92
2022/02/20 00:37:13;;;;;;;10.63;4.95;;;3.60;99.90;;;;;;6306708;22;20432;-92
2022/02/20 00:39:39;;;;;;;15.55;5.45;;;3.60;99.90;;;;;;6305584;22;20008;-91
2022/02/20 00:42:04;;;;;;;9.38;5.20;;;3.60;99.90;;;;;;6305687;22;20030;-91
2022/02/20 00:44:30;;;;;;;10.55;4.72;;;3.70;99.90;;;;;;6305445;22;20150;-91
2022/02/20 00:46:56;;;;;;;15.45;4.72;;;3.70;99.90;;;;;;6305396;22;20003;-90
2022/02/20 00:49:22;;;;;;;10.82;4.68;;;3.80;99.90;;;;;;6305375;22;20418;-92
2022/02/20 00:51:47;;;;;;;12.45;4.15;;;3.80;99.90;;;;;;6305611;22;20083;-91
2022/02/20 00:54:13;;;;;;;6.25;2.03;;;3.90;99.90;;;;;;6307850;22;20000;-91
2022/02/20 00:56:39;;;;;;;9.27;3.17;;;3.90;99.90;;;;;;6306091;22;20435;-92
2022/02/20 00:59:05;;;;;;;5.35;2.72;;;4.00;99.90;;;;;;6305671;22;20485;-92
2022/02/20 01:01:31;;;;;;;5.50;2.80;;;4.10;99.90;;;;;;6305991;22;20014;-92
2022/02/20 01:03:58;;;;;;;7.13;2.78;;;4.20;99.90;;;;;;6305874;22;20065;-92
2022/02/20 01:06:24;;;;;;;11.90;3.08;;;4.40;99.90;;;;;;6305815;22;20003;-93
2022/02/20 01:08:51;;;;;;;5.97;3.42;;;4.40;99.90;;;;;;6305698;22;20581;-93
2022/02/20 01:11:17;;;;;;;6.43;3.40;;;4.50;99.90;;;;;;6307623;22;20053;-93
2022/02/20 01:13:43;;;;;;;6.15;3.10;;;4.50;99.90;;;;;;6305635;22;20054;-90
2022/02/20 01:16:09;;;;;;;5.50;3.33;;;4.60;99.90;;;;;;6306027;22;20011;-91
2022/02/20 01:18:35;;;;;;;8.90;3.30;;;4.60;99.90;;;;;;6305585;22;20083;-92
2022/02/20 01:21:00;;;;;;;5.90;2.65;;;4.60;99.90;;;;;;6306308;22;20007;-93
2022/02/20 01:23:26;;;;;;;9.20;4.40;;;4.60;99.90;;;;;;6306336;22;20460;-93
2022/02/20 01:25:52;;;;;;;7.40;2.47;;;4.60;99.90;;;;;;6306602;22;20003;-91
2022/02/20 01:28:18;;;;;;;4.35;2.30;;;4.70;99.90;;;;;;6308364;22;20003;-92
2022/02/20 01:30:44;;;;;;;4.13;2.28;;;4.70;99.90;;;;;;6306307;22;20045;-92
2022/02/20 01:33:10;;;;;;;2.50;1.67;;;4.80;99.90;;;;;;6305907;22;20401;-93
2022/02/20 01:35:36;;;;;;;5.15;2.03;;;4.90;99.90;;;;;;6305313;22;20361;-93
2022/02/20 01:38:02;;;;;;;4.40;2.28;;;5.00;99.90;;;;;;6305731;22;20014;-91
2022/02/20 01:40:30;;;;;;;4.78;1.08;;;5.10;99.90;;;;;;6306365;22;19995;-92
2022/02/20 01:42:57;;;;;;;5.57;2.90;;;5.10;99.90;;;;;;6307885;22;20023;-93
2022/02/20 01:45:23;;;;;;;7.45;2.28;;;5.30;99.90;;;;;;6281912;22;20011;-93
2022/02/20 01:47:50;;;;;;;5.18;1.83;;;5.40;99.90;;;;;;6281645;22;20472;-91
2022/02/20 01:50:16;;;;;;;10.05;3.10;;;5.40;99.90;;;;;;6282529;22;20015;-93
2022/02/20 01:52:46;;;;;;;9.68;2.90;;;5.60;99.90;;;;;;6281841;22;20007;-93
2022/02/20 01:55:14;;;;;;;4.15;1.52;;;5.70;99.90;;;;;;6282021;22;20030;-93
2022/02/20 01:57:41;;;;;;;5.80;2.47;;;5.80;99.90;;;;;;6280049;22;20007;-94
2022/02/20 02:00:13;;;;;;;11.00;2.65;;;5.90;99.90;;;;;;6282158;22;20000;-95
2022/02/20 02:02:39;;;;;;;8.25;2.22;;;6.00;99.90;;;;;;6281952;22;20059;-93
2022/02/20 02:05:06;;;;;;;4.93;1.25;;;6.00;99.90;;;;;;6281574;22;20007;-94
2022/02/20 02:07:32;;;;;;;7.65;2.50;;;6.10;99.90;;;;;;6282306;22;20007;-92
2022/02/20 02:09:58;;;;;;;13.32;2.40;;;6.20;99.90;;;;;;6282362;22;20010;-93
2022/02/20 02:12:23;;;;;;;12.70;1.85;;;6.30;99.90;;;;;;6281749;22;20042;-93
2022/02/20 02:15:04;;;;;;;14.20;2.65;;;6.30;99.90;;;;;;6281448;22;20633;-92
2022/02/20 02:17:30;;;;;;;;;;;6.50;99.90;;;;;;6282141;22;20003;-93
2022/02/20 02:19:56;;;;;;;13.40;1.60;;;6.60;99.90;;;;;;6282017;22;19903;-94
2022/02/20 02:22:23;;;;;;;9.60;1.58;;;6.70;99.90;;;;;;6281962;22;20003;-94
2022/02/20 02:24:50;;;;;;;10.43;1.70;;;6.80;99.90;;;;;;6281655;22;20371;-93
2022/02/20 02:27:16;;;;;;;7.68;1.67;;;6.90;99.90;;;;;;6282052;22;20455;-94
2022/02/20 02:29:43;;;;;;;15.07;1.85;;;7.00;99.90;;;;;;6281358;22;20000;-93
2022/02/20 02:32:09;;;;;;;14.77;2.03;;;7.10;99.90;;;;;;6282144;22;20007;-93
2022/02/20 02:34:35;;;;;;;6.78;1.25;;;7.20;99.90;;;;;;6281797;22;20010;-95
2022/02/20 02:37:02;;;;;;;10.98;1.95;;;7.30;99.90;;;;;;6282270;22;20018;-94
2022/02/20 02:39:28;;;;;;;11.60;1.70;;;7.40;99.90;;;;;;6285932;22;20033;-93
2022/02/20 02:41:54;;;;;;;19.75;2.35;;;7.50;99.90;;;;;;6286981;22;19999;-96
2022/02/20 02:44:20;;;;;;;12.70;1.67;;;7.60;99.90;;;;;;6297846;22;20067;-94
2022/02/20 02:46:46;;;;;;;11.73;1.75;;;7.60;99.90;;;;;;6309476;22;20003;-93
2022/02/20 02:49:12;;;;;;;16.10;1.73;;;7.70;99.90;;;;;;6311666;22;20041;-93
2022/02/20 02:51:39;;;;;;;17.20;2.05;;;7.70;99.90;;;;;;6312418;22;20015;-94
2022/02/20 02:54:11;;;;;;;14.00;3.38;;;7.80;99.90;;;;;;6308995;22;19999;-94
2022/02/20 02:56:38;;;;;;;13.73;2.22;;;7.80;99.90;;;;;;6308389;22;20007;-94
2022/02/20 02:59:05;;;;;;;18.23;3.33;;;7.90;99.90;;;;;;6308089;22;19996;-93
2022/02/20 03:01:31;;;;;;;13.27;2.22;;;7.90;99.90;;;;;;6307859;22;20015;-95
2022/02/20 03:03:56;;;;;;;18.65;2.65;;;7.90;99.90;;;;;;6307515;22;20008;-95
2022/02/20 03:06:23;;;;;;;21.23;2.67;;;7.90;99.90;;;;;;6307989;22;20347;-94
2022/02/20 03:08:50;;;;;;;17.55;2.13;;;7.90;99.90;;;;;;6307331;22;20007;-94
2022/02/20 03:11:17;;;;;;;24.05;3.20;;;7.90;99.90;;;;;;6308535;22;20011;-93
2022/02/20 03:13:43;;;;;;;25.00;3.45;;;7.90;99.90;;;;;;6307206;22;20094;-94
2022/02/20 03:16:09;;;;;;;24.00;3.53;;;7.90;99.90;;;;;;6307683;22;20090;-93
2022/02/20 03:18:35;;;;;;;21.52;3.20;;;8.00;99.90;;;;;;6307074;22;20034;-93
2022/02/20 03:21:03;;;;;;;19.52;2.67;;;8.00;99.90;;;;;;6307141;22;20060;-94
2022/02/20 03:23:29;;;;;;;27.90;2.90;;;8.00;99.90;;;;;;6307510;22;20070;-93
2022/02/20 03:25:58;;;;;;;16.17;2.50;;;8.00;99.90;;;;;;6307169;22;20003;-93
2022/02/20 03:28:24;;;;;;;16.55;2.67;;;8.00;99.90;;;;;;6307256;22;20438;-92
2022/02/20 03:30:49;;;;;;;17.00;2.70;;;8.10;99.90;;;;;;6306536;22;20011;-93
2022/02/20 03:33:17;;;;;;;24.42;3.05;;;8.10;99.90;;;;;;6306792;22;20561;-92
2022/02/20 03:35:45;;;;;;;10.50;2.25;;;8.10;99.90;;;;;;6307140;22;20513;-93
2022/02/20 03:38:11;;;;;;;23.48;2.90;;;8.10;99.90;;;;;;6310085;22;20007;-93
2022/02/20 03:40:37;;;;;;;29.67;3.60;;;8.10;99.90;;;;;;6310283;22;20515;-93
2022/02/20 03:43:03;;;;;;;15.82;2.38;;;8.10;99.90;;;;;;6310722;22;20013;-93
2022/02/20 03:45:29;;;;;;;21.83;3.20;;;8.10;99.90;;;;;;6286498;22;20029;-94
2022/02/20 03:47:55;;;;;;;30.63;3.75;;;8.10;99.90;;;;;;6285394;22;20014;-95
2022/02/20 03:50:26;;;;;;;26.73;3.80;;;8.10;99.90;;;;;;6290176;22;20061;-95
2022/02/20 03:52:52;;;;;;;24.02;4.55;;;8.10;99.90;;;;;;6290851;22;19999;-94
2022/02/20 03:55:20;;;;;;;21.83;2.65;;;8.10;99.90;;;;;;6286373;22;20059;-95
2022/02/20 03:57:46;;;;;;;28.80;3.22;;;8.10;99.90;;;;;;6291374;22;20003;-93
2022/02/20 04:00:16;;;;;;;19.35;3.67;;;8.10;99.90;;;;;;6291403;22;20006;-94
2022/02/20 04:02:42;;;;;;;27.70;3.83;;;8.10;99.90;;;;;;6284905;22;20003;-95
2022/02/20 04:05:12;;;;;;;29.70;3.50;;;8.10;99.90;;;;;;6259846;22;20018;-95
2022/02/20 04:07:38;;;;;;;23.30;3.37;;;8.10;99.90;;;;;;6285983;22;20007;-94
2022/02/20 04:10:08;;;;;;;23.98;3.13;;;8.10;99.90;;;;;;6282480;22;20004;-94
2022/02/20 04:12:33;;;;;;;15.88;2.30;;;8.10;99.90;;;;;;6283654;22;20089;-95
2022/02/20 04:15:00;;;;;;;30.40;3.97;;;8.10;99.90;;;;;;6283791;22;20003;-94
2022/02/20 04:17:26;;;;;;;34.03;4.05;;;8.10;99.90;;;;;;6285822;22;20007;-95
2022/02/20 04:19:53;;;;;;;26.02;3.65;;;8.00;99.90;;;;;;6287265;22;19996;-94
2022/02/20 04:22:20;;;;;;;30.10;4.50;;;8.00;99.90;;;;;;6287470;22;20014;-95
2022/02/20 04:24:46;;;;;;;30.35;4.13;;;8.00;99.90;;;;;;6285719;22;19999;-96
2022/02/20 04:27:19;;;;;;;21.58;3.70;;;8.00;99.90;;;;;;6287263;22;20473;-96
2022/02/20 04:29:45;;;;;;;34.72;6.57;;;8.00;99.90;;;;;;6285451;22;19999;-95
2022/02/20 04:32:12;;;;;;;40.28;6.07;;;8.00;99.90;;;;;;6287632;22;20018;-95
2022/02/20 04:34:41;;;;;;;39.00;4.78;;;8.00;99.90;;;;;;6287274;22;20000;-95
2022/02/20 04:37:06;;;;;;;21.88;3.10;;;8.00;99.90;;;;;;6299171;22;20014;-96
2022/02/20 04:39:37;;;;;;;25.13;4.75;;;8.10;99.90;;;;;;6306318;22;20007;-95
2022/02/20 04:42:05;;;;;;;28.00;3.75;;;8.00;99.90;;;;;;6334461;22;20017;-95
2022/02/20 04:44:37;;;;;;;26.73;3.83;;;8.00;99.90;;;;;;6318370;22;20015;-96
2022/02/20 04:47:41;;;;;;;30.98;4.18;;;8.00;99.90;;;;;;6302306;22;20003;-95
2022/02/20 04:50:09;;;;;;;33.67;5.85;;;8.00;99.90;;;;;;6310466;22;20026;-96
2022/02/20 04:52:35;;;;;;;25.58;3.85;;;8.00;99.90;;;;;;6305619;22;20022;-95
2022/02/20 04:55:33;;;;;;;25.58;5.57;;;8.10;99.90;;;;;;6280385;22;19991;-95
2022/02/20 04:58:08;;;;;;;29.52;4.35;;;8.10;99.90;;;;;;6259389;22;20052;-94
2022/02/20 05:00:42;;;;;;;29.40;4.75;;;8.10;99.90;;;;;;6246544;22;20027;-96
2022/02/20 05:03:11;;;;;;;41.40;6.22;;;8.10;99.90;;;;;;6289763;22;20055;-95
2022/02/20 05:05:54;;;;;;;35.60;5.18;;;8.10;99.90;;;;;;6293407;22;20061;-94
2022/02/20 05:08:22;;;;;;;22.37;3.33;;;8.10;99.90;;;;;;6241258;22;20040;-95
2022/02/20 05:10:51;;;;;;;38.58;5.68;;;8.10;99.90;;;;;;6242635;22;20026;-96
2022/02/20 06:23:45;;;;;;;21.13;3.78;;;8.30;99.90;;;;;;6262719;22;20045;-95
2022/02/20 06:29:28;;;;;;;11.80;1.90;;;8.30;99.90;;;;;;6244622;22;20029;-95
2022/02/20 06:32:14;;;;;;;11.48;2.20;;;8.30;99.90;;;;;;6208401;23;19996;-94
2022/02/20 06:35:00;;;;;;;13.75;2.42;;;8.20;99.90;;;;;;6210750;23;20001;-96
2022/02/20 06:37:36;;;;;;;13.00;1.92;;;8.30;99.90;;;;;;6235881;23;20008;-95
2022/02/20 06:40:10;;;;;;;4.72;2.63;;;8.30;99.90;;;;;;6216148;23;20024;-93
2022/02/20 06:42:36;;;;;;;8.13;1.65;;;8.20;99.90;;;;;;6202777;23;20005;-94
2022/02/20 06:45:03;;;;;;;11.25;1.42;;;8.30;99.90;;;;;;6202130;23;20013;-93
2022/02/20 06:50:22;;;;;;;7.35;1.67;;;8.30;99.90;;;;;;6219755;23;20039;-94
2022/02/20 06:52:48;;;;;;;14.77;1.70;;;8.30;99.90;;;;;;6192584;23;20418;-95
2022/02/20 06:55:15;;;;;;;10.63;1.35;;;8.30;99.90;;;;;;6220808;23;20044;-95
2022/02/20 06:57:42;;;;;;;6.22;0.95;;;8.30;99.90;;;;;;6200090;23;20151;-96
2022/02/20 07:27:03;;;;;;;4.38;1.20;;;8.50;99.90;;;;;;6277113;22;20030;-94
2022/02/20 07:32:27;;;;;;;11.18;1.98;;;8.60;99.90;;;;;;6265817;22;20012;-95
2022/02/20 10:25:02;;;;;;;8.45;1.65;;;9.70;99.90;;;;;;6294609;22;20027;-96
2022/02/20 15:20:58;;;;;;;0.93;0.70;;;10.30;99.90;;;;;;6309081;22;20723;-96
2022/02/20 15:24:14;;;;;;;3.33;0.50;;;9.90;99.90;;;;;;6288362;22;20011;-95
2022/02/20 15:27:43;;;;;;;0.75;0.28;;;8.90;99.90;;;;;;6249794;22;20011;-94
2022/02/20 16:51:47;;;;;;;1.20;0.68;;;7.20;99.90;;;;;;6301602;22;20031;-94
2022/02/20 17:05:21;;;;;;;2.42;0.93;;;6.90;99.90;;;;;;6323175;22;20007;-94
2022/02/20 17:07:46;;;;;;;4.55;0.73;;;6.80;99.90;;;;;;6306388;22;20034;-94
2022/02/20 18:11:24;;;;;;;6.90;0.98;;;5.40;99.90;;;;;;6285300;22;20011;-95
2022/02/20 18:36:46;;;;;;;17.33;2.33;;;5.30;99.90;;;;;;6282756;22;20022;-92
2022/02/20 19:42:51;;;;;;;22.10;3.53;;;4.60;99.90;;;;;;6303843;22;20046;-94
2022/02/20 19:46:06;;;;;;;15.57;2.35;;;4.50;99.90;;;;;;6295870;22;20003;-94
2022/02/20 19:48:41;;;;;;;4.43;1.27;;;4.50;99.90;;;;;;6300181;22;19991;-94
2022/02/20 19:51:23;;;;;;;11.55;1.63;;;4.40;99.90;;;;;;6303770;22;20233;-94
2022/02/20 20:04:31;;;;;;;6.05;1.10;;;4.00;99.90;;;;;;6262116;22;20010;-94
2022/02/20 20:10:38;;;;;;;8.57;1.77;;;3.90;99.90;;;;;;6279072;22;20450;-94
2022/02/20 20:15:57;;;;;;;11.85;2.50;;;3.90;99.90;;;;;;6286470;22;20007;-93
2022/02/20 20:18:23;;;;;;;15.07;2.58;;;3.90;99.90;;;;;;6300704;22;20027;-94
2022/02/20 20:23:50;;;;;;;21.60;2.38;;;4.00;99.90;;;;;;6314350;22;20014;-94
2022/02/20 20:26:16;;;;;;;15.45;2.65;;;4.00;99.90;;;;;;6297363;22;20007;-95
2022/02/20 20:28:42;;;;;;;5.43;1.10;;;4.00;99.90;;;;;;6325411;22;20006;-94
2022/02/20 20:31:08;;;;;;;17.77;3.20;;;4.00;99.90;;;;;;6301649;22;20007;-95
2022/02/20 20:33:41;;;;;;;17.08;2.15;;;4.00;99.90;;;;;;6307943;22;20018;-93
2022/02/20 20:36:07;;;;;;;23.63;3.22;;;4.00;99.90;;;;;;6309515;22;20003;-94
2022/02/20 20:38:34;;;;;;;21.00;2.80;;;4.00;99.90;;;;;;6308931;22;19998;-94
2022/02/20 20:41:00;;;;;;;12.90;1.50;;;4.00;99.90;;;;;;6309062;22;20021;-94
2022/02/20 20:43:33;;;;;;;42.08;2.22;;;3.90;99.90;;;;;;6309225;22;20002;-94
2022/02/20 20:46:06;;;;;;;18.83;2.13;;;3.90;99.90;;;;;;6308951;22;19995;-95
2022/02/20 20:48:37;;;;;;;13.68;2.20;;;3.90;99.90;;;;;;6308940;22;20007;-95
2022/02/20 20:51:05;;;;;;;22.85;4.00;;;3.90;99.90;;;;;;6306824;22;20033;-93
2022/02/20 20:53:53;;;;;;;15.00;2.15;;;3.90;99.90;;;;;;6308578;22;20049;-94
2022/02/20 20:56:22;;;;;;;9.18;1.70;;;3.90;99.90;;;;;;6308432;22;20007;-94
2022/02/20 20:58:51;;;;;;;11.10;1.92;;;3.90;99.90;;;;;;6277281;22;20043;-93
2022/02/20 21:01:17;;;;;;;7.63;1.42;;;3.90;99.90;;;;;;6302771;22;19988;-94
2022/02/20 21:03:48;;;;;;;14.35;2.30;;;3.90;99.90;;;;;;6303086;22;20039;-94
2022/02/20 21:06:16;;;;;;;14.02;2.22;;;3.90;99.90;;;;;;6302687;22;20063;-94
2022/02/20 21:08:51;;;;;;;12.90;1.58;;;3.90;99.90;;;;;;6277700;22;20056;-93
2022/02/20 21:11:21;;;;;;;5.60;0.77;;;3.90;99.90;;;;;;6277207;22;20000;-94
2022/02/20 21:13:47;;;;;;;7.53;1.60;;;3.90;99.90;;;;;;6274897;22;20014;-95
2022/02/20 21:16:16;;;;;;;16.85;2.28;;;3.90;99.90;;;;;;6275722;22;20016;-93
2022/02/20 21:18:58;;;;;;;11.52;3.88;;;3.90;99.90;;;;;;6276838;22;19988;-93
2022/02/20 21:24:09;;;;;;;7.38;1.77;;;3.80;99.90;;;;;;6322539;22;20046;-95
2022/02/20 21:26:35;;;;;;;12.52;1.58;;;3.80;99.90;;;;;;6282705;22;19999;-94
2022/02/20 21:29:01;;;;;;;12.88;1.65;;;3.80;99.90;;;;;;6282489;22;20039;-95
2022/02/20 21:31:52;;;;;;;13.38;2.28;;;3.70;99.90;;;;;;6307046;22;20008;-94
2022/02/20 21:34:18;;;;;;;10.32;1.35;;;3.70;99.90;;;;;;6308373;22;20015;-94
2022/02/20 21:36:44;;;;;;;16.25;2.08;;;3.60;99.90;;;;;;6307732;22;20003;-93
2022/02/20 21:39:11;;;;;;;5.07;1.05;;;3.50;99.90;;;;;;6307812;22;20007;-95
2022/02/20 21:41:40;;;;;;;10.30;1.50;;;3.50;99.90;;;;;;6283053;22;19996;-92
2022/02/20 21:44:06;;;;;;;14.75;1.65;;;3.40;99.90;;;;;;6307737;22;19991;-94
2022/02/20 21:46:39;;;;;;;12.52;2.22;;;3.50;99.90;;;;;;6308679;22;19992;-94
2022/02/20 21:49:05;;;;;;;14.73;2.20;;;3.40;99.90;;;;;;6308220;22;20022;-93
2022/02/20 21:51:33;;;;;;;13.77;2.90;;;3.40;99.90;;;;;;6334127;22;20023;-94
2022/02/20 21:54:05;;;;;;;13.05;2.67;;;3.40;99.90;;;;;;6307146;22;19995;-93
2022/02/20 21:56:31;;;;;;;12.27;2.33;;;3.40;99.90;;;;;;6308093;22;20009;-95
2022/02/20 21:59:03;;;;;;;22.63;2.95;;;3.40;99.90;;;;;;6309265;22;20015;-95
2022/02/20 22:01:32;;;;;;;7.53;2.30;;;3.40;99.90;;;;;;6310004;22;19987;-93
2022/02/20 22:03:58;;;;;;;9.93;1.50;;;3.40;99.90;;;;;;6285024;22;20003;-94
2022/02/20 22:06:24;;;;;;;14.85;2.65;;;3.40;99.90;;;;;;6309971;22;20051;-94
2022/02/20 22:08:49;;;;;;;10.20;1.35;;;3.30;99.90;;;;;;6310090;22;20018;-94
2022/02/20 22:11:15;;;;;;;11.75;2.13;;;3.20;99.90;;;;;;6309719;22;19999;-94
2022/02/20 22:13:42;;;;;;;19.05;3.97;;;3.20;99.90;;;;;;6310369;22;19987;-95
2022/02/20 22:16:08;;;;;;;14.88;2.45;;;3.00;99.90;;;;;;6336126;22;20010;-92
2022/02/20 22:18:44;;;;;;;16.20;2.72;;;2.90;99.90;;;;;;6309696;22;20003;-95
2022/02/20 22:21:15;;;;;;;11.57;1.92;;;2.80;99.90;;;;;;6309558;22;20010;-95
2022/02/20 22:23:42;;;;;;;7.38;1.92;;;2.70;99.90;;;;;;6283946;22;20018;-92
2022/02/20 22:26:08;;;;;;;18.05;2.15;;;2.60;99.90;;;;;;6309413;22;20003;-94
2022/02/20 22:28:37;;;;;;;9.45;1.90;;;2.40;99.90;;;;;;6305192;22;20010;-93
2022/02/20 22:31:03;;;;;;;12.80;2.03;;;2.30;99.90;;;;;;6309132;22;20011;-92
2022/02/20 22:33:29;;;;;;;6.50;1.38;;;2.20;99.90;;;;;;6308834;22;19998;-96
2022/02/20 22:35:59;;;;;;;11.90;1.52;;;2.10;99.90;;;;;;6334129;22;19995;-94
2022/02/20 22:38:27;;;;;;;15.57;1.48;;;2.10;99.90;;;;;;6309602;22;19992;-94
2022/02/20 22:40:59;;;;;;;16.05;2.05;;;2.10;99.90;;;;;;6309484;22;19999;-94
2022/02/20 23:44:51;;;;;;;12.27;2.67;;;2.40;99.90;;;;;;6305807;22;20007;-94
2022/02/20 23:47:22;;;;;;;8.23;1.90;;;2.50;99.90;;;;;;6309624;22;20011;-93
2022/02/20 23:49:51;;;;;;;9.27;2.80;;;2.60;99.90;;;;;;6308681;22;19995;-93
2022/02/20 23:52:22;;;;;;;8.20;2.10;;;2.60;99.90;;;;;;6309022;22;20015;-94
2022/02/20 23:54:48;;;;;;;18.23;2.42;;;2.60;99.90;;;;;;6309485;22;19995;-93
2022/02/20 23:57:16;;;;;;;15.13;2.70;;;2.60;99.90;;;;;;6309012;22;19999;-92
2022/02/20 23:59:43;;;;;;;13.18;1.83;;;2.60;99.90;;;;;;6309162;22;19991;-95
